Latest METARs, TAFs and NOTAMs for SBRF


---------------------------------------------------------------------------
	(OBSERVATIONS)
SBRF 240900Z 11006KT 9999 SCT023 27/22 Q1013=
SBRF 240800Z 12005KT 9999 BKN023 26/23 Q1013=
SBRF 240700Z 10005KT 9000 -RA BKN020 25/23 Q1013=
SBRF 240600Z 10005KT 9999 SCT020 27/22 Q1013=
---------------------------------------------------------------------------
	(TERMINAL AREA FORECAST)
SBRF 240230Z 2406/2506 12006KT 8000 SCT022 TN25/2408Z TX29/2415Z
    RMK
    PEA=
---------------------------------------------------------------------------
	(NOTAMS)


SBRF I0008/19 TWY MIKE BTN TWY BRAVO AND TWY CHARLIE MAINT SER
    ON THE SIDES. MON TIL FRI 1000-2000, 16 JAN 10:00 2019 UNTIL
    11 MAR 20:00 2019. CREATED: 07 JAN 15:00 2019

SBRF I0263/18 AD EXCLUDE RMK: VOR/DME NO AVBL BTN RDL 009/019
    VOR/DME RESTRICTED TO 36NM BTN RDL 048/058 AND RDL 266/276
    REF: AIP ENR 4.1 AD 2.19. 29 MAR 18:16 2018 UNTIL PERM. CREATED:
    29 MAR 18:15 2018

SBRF I0431/16 TWR - D-CL (DATA LINK CLRD) AUTH OF TFC VIA DATA
    LINK ACT H24 REF: AIP AD 2.24. 12 AUG 21:02 2016 UNTIL PERM.
    CREATED: 12 AUG 21:13 2016

SBRF I0451/16 IAP RNAV (GNSS) RWY 36 CHANGED REP : 1 - RF002
    TO SATMA 2 - RF006 TO LOLUK REF: AIP AD 2.24 CNS123W SEQUENCE
    CHECK FOR SBRJYNYX I -- EXPECTED I0450/16 -- RECEIVED I0451/16.
    01 SEP 23:33 2016 UNTIL PERM. CREATED: 01 SEP 23:36 2016

SBRF I0451/17 D-ATIS (DATA LINK ATIS) HR SER H24 INSTL REF: AIP
    AD 2.24 IAC(ALL), STAR(ALL), PDC, VAC. 16 AUG 14:29 2017
    UNTIL PERM. CREATED: 16 AUG 14:34 2017

SBRF I0453/16 IAP RNAV (GNSS) RWY 18 CHANGED REP RF012 TO ANDOX
    REF: AIP AD 2.24. 01 SEP 23:38 2016 UNTIL PERM. CREATED:
    01 SEP 23:39 2016

SBRF I0504/16 IAP ILS W RWY 18 CHANGED REP RF012 TO ANDOX REF:
    AIP AD 2.24. 23 SEP 17:20 2016 UNTIL PERM. CREATED: 23 SEP
    17:19 2016

SBRF I0514/18 AD NOISE ABATEMENT PROC CHANGED TO: AIRCRAFT CAUSING
    A NOISE LEVEL ABOVE THAT ALLOWED ARE THOSE THAT DO NOT COMPLY
    WITH THE REQUIREMENTS ESTABLISHED IN THE BRAVO AND CHARLIE
    LETTERS OF ITEM 36.103 OF THE BRAZILIAN AVIACAO CIVIL (RBAC
    36), EQUIVALENT TO CHAPTERS 3 A ND 4, RESPECTIVELY, OF ANNEX
    16 VOLUME 1 OF THE INTERNATIONAL CIVIL AVIATION CONVENTION
    RESTRICTIONS FOR DEP : PROCEDURES FOR DEPARTURE SHOULD BE
    CONFORMED ESTIMATED IN SID REF: AIP BRAZIL AD 2.21. 11 JUN
    21:08 2018 UNTIL PERM. CREATED: 11 JUN 21:07 2018

SBRF I0543/18 AIS CHANGED RMK NOISE ABATEMENT PROC TO: NOISE
    ABATEMENT PROC FOR ACFT CONSIDERED NOISY, ACCORDING AIP BRAZIL
    AD 2.21 BETWEEN 0100-0900 UTC EXECUTE SPECIFIC NOISE ABATEMENT
    PROC OF EQPT O R MAINTAIN V2+10KT UNTIL 900FT AFTER BETWEEN
    V2+10KTE AND V2+20KT UNTIL 3100FT REF: AIP BRAZIL AD2.24
    (ALL SID. 20 JUN 12:45 2018 UNTIL PERM. CREATED: 20 JUN 13:52
    2018

SBRF I0676/18 OBST (TOWER) NEG LGTD IN VIOLATION OF THE PLAN
    BASED ON THE ZONE O F PROTECTION OF THE AD COORD 080531.04S0345643.28W,
    ALT 67,00M REF: AIP AD 2.10 AIP MAP VAC, AOC. 13 AUG 13:44
    2018 UNTIL PERM. CREATED: 13 AUG 14:39 2018

SBRF I0803/18 A/G FAC TWR (CLRD) FREQ 118.90MHZ INSTL REF: AIP
    AD 2.18 AD 2.24 (ADC, PDC. 20 SEP 19:22 2018 UNTIL PERM.
    CREATED: 20 SEP 19:24 2018

SBRF I0804/18 A/G FAC TWR RECIFE FREQ 125.25MHZ (SECONDARY) INSTL
    REF: AIP AD 2.18 AD 2.24 (ADC, PDC, VAC, IAC, SID. 20 SEP
    19:46 2018 UNTIL PERM. CREATED: 20 SEP 19:47 2018

SBRF I0856/17 VSA NDB 285KHZ WITHDRAWN REF: AIP BRASIL ENR 4.1,
    ENR 6.1 L3, ENR 6.1 H3; AIP AD 2.24 (SID, ARC. 18 DEC 18:07
    2017 UNTIL PERM. CREATED: 18 DEC 18:06 2017

SBRF I0931/18 APP RECIFE FREQ 120.400MHZ HR SER H24 INSTL REF:
    AIP AD 2.18 AD 2.24 ENR 2.1 ENR 6.1 L3 H3. 22 OCT 14:10 2018
    UNTIL PERM. CREATED: 22 OCT 14:11 2018

SBRF I0998/18 SID (ALL): WITHDRAWN ON RMK IFR MNM BELOW REGULAR
    TAKE-OFF MNM DEP REF: AIP AD 2.24. 08 NOV 00:57 2018 UNTIL
    PERM. CREATED: 08 NOV 01:19 2018

SBRF I1026/18 ADC CORRECT RMK TO: TWY NOVEMBER AND PAPA ACFT
    OPR TO TFC 15M WING SPAN REF: AIP AD 2.24 ADC. 10 NOV 23:59
    2018 UNTIL PERM. CREATED: 11 NOV 00:12 2018

SBRF I1041/18 OBST (TOWER) LGTD ELEV 245,41FT COORD 080705.90S/0345340.26
    IN VIO LATION OF THE PLAN BASED ON THE ZONE OF PROTECTION
    OF THE AD. 12 NOV 19:29 2018 UNTIL 08 FEB 23:59 2019. CREATED:
    01 DEC 05:49 2018

SBRF I1155/18 AIS OPR IN SELF-SERVICE MODALITY RMK: FOR ADDITIONAL
    INFORMATION CONSULT (AERONAUTICAL INFORMATION CEN TRE) TEL
    +55 81 2129-8212 AND TEL/FAX PLN +55 81 2129-8215 REF.: AIP
    AD 2. 14 NOV 23:22 2018 UNTIL PERM. CREATED: 04 DEC 14:57
    2018

SBRF I1178/18 PJE UNDER VMC SUBJ COOR RECIFE ACC/AUTH RECIFE
    APP WILL TAKE PLACE COORD 083125S/0350025W RADIUS 2,5KM SFC/FL035
    RESTRICTED FL035/FL160 COOR. SFC - FL160, DLY 0900-2100,
    26 DEC 09:00 2018 UNTIL 23 MAR 21:00 2019. CREATED: 19 DEC
    21:07 2018

SBRF I1182/18 PARAGLIDING (MOTORIZED) WILL TAKE PLACE COORD 083018S0350000W,
    083 018S0345945W, 083255S0345945W, 083255S0350010W, 083128S0350026W,
    083048S0350017W, 083038S0350004W (P ORTO DE GALINHAS, PE)
    RESTRICTED. GND - 300FT AMSL, DLY 1200-2000, 27 DEC 12:00
    2018 UNTIL 26 MAR 20:00 2019. CREATED: 20 DEC 22:11 2018

---------------------------------------------------------------------------